sensor_id;sensor_type;location;lat;lon;timestamp;temperature;humidity
22781;DHT22;11557;50.884;4.322;2022-11-20T00:01:25;7.70;99.90
22781;DHT22;11557;50.884;4.322;2022-11-20T00:03:52;8.30;99.90
22781;DHT22;11557;50.884;4.322;2022-11-20T00:06:19;8.30;99.90
22781;DHT22;11557;50.884;4.322;2022-11-20T00:08:45;7.60;99.90
22781;DHT22;11557;50.884;4.322;2022-11-20T00:11:16;8.10;99.90
22781;DHT22;11557;50.884;4.322;2022-11-20T00:13:43;8.10;99.90
22781;DHT22;11557;50.884;4.322;2022-11-20T00:16:10;8.50;99.90
22781;DHT22;11557;50.884;4.322;2022-11-20T00:18:36;7.70;99.90
22781;DHT22;11557;50.884;4.322;2022-11-20T00:21:06;8.60;99.90
22781;DHT22;11557;50.884;4.322;2022-11-20T00:23:33;8.30;99.90
22781;DHT22;11557;50.884;4.322;2022-11-20T00:26:06;8.10;99.90
22781;DHT22;11557;50.884;4.322;2022-11-20T00:28:32;7.30;99.90
22781;DHT22;11557;50.884;4.322;2022-11-20T00:31:16;7.30;99.90
22781;DHT22;11557;50.884;4.322;2022-11-20T00:33:42;7.70;99.90
22781;DHT22;11557;50.884;4.322;2022-11-20T00:36:16;7.50;99.90
22781;DHT22;11557;50.884;4.322;2022-11-20T00:38:43;7.40;99.90
22781;DHT22;11557;50.884;4.322;2022-11-20T00:41:10;8.70;99.90
22781;DHT22;11557;50.884;4.322;2022-11-20T00:43:37;7.40;99.90
22781;DHT22;11557;50.884;4.322;2022-11-20T00:46:12;7.30;99.90
22781;DHT22;11557;50.884;4.322;2022-11-20T00:48:38;8.30;99.90
22781;DHT22;11557;50.884;4.322;2022-11-20T00:51:04;7.90;99.90
22781;DHT22;11557;50.884;4.322;2022-11-20T00:53:30;7.20;99.90
22781;DHT22;11557;50.884;4.322;2022-11-20T00:55:58;7.40;99.90
22781;DHT22;11557;50.884;4.322;2022-11-20T00:58:25;8.00;99.90
22781;DHT22;11557;50.884;4.322;2022-11-20T01:00:50;7.20;99.90
22781;DHT22;11557;50.884;4.322;2022-11-20T01:03:17;8.10;99.90
22781;DHT22;11557;50.884;4.322;2022-11-20T01:05:43;7.00;99.90
22781;DHT22;11557;50.884;4.322;2022-11-20T01:08:08;7.10;99.90
22781;DHT22;11557;50.884;4.322;2022-11-20T01:10:34;7.90;99.90
22781;DHT22;11557;50.884;4.322;2022-11-20T01:12:59;7.00;99.90
22781;DHT22;11557;50.884;4.322;2022-11-20T01:15:44;7.20;99.90
22781;DHT22;11557;50.884;4.322;2022-11-20T01:18:09;7.30;99.90
22781;DHT22;11557;50.884;4.322;2022-11-20T01:20:35;7.10;99.90
22781;DHT22;11557;50.884;4.322;2022-11-20T01:23:05;7.10;99.90
22781;DHT22;11557;50.884;4.322;2022-11-20T01:25:30;7.20;99.90
22781;DHT22;11557;50.884;4.322;2022-11-20T01:27:56;7.10;99.90
22781;DHT22;11557;50.884;4.322;2022-11-20T01:30:21;7.80;99.90
22781;DHT22;11557;50.884;4.322;2022-11-20T01:32:47;7.80;99.90
22781;DHT22;11557;50.884;4.322;2022-11-20T01:35:12;8.00;99.90
22781;DHT22;11557;50.884;4.322;2022-11-20T01:37:38;7.20;99.90
22781;DHT22;11557;50.884;4.322;2022-11-20T01:40:05;7.00;99.90
22781;DHT22;11557;50.884;4.322;2022-11-20T01:42:31;7.20;99.90
22781;DHT22;11557;50.884;4.322;2022-11-20T01:48:15;6.80;99.90
22781;DHT22;11557;50.884;4.322;2022-11-20T01:50:42;8.10;99.90
22781;DHT22;11557;50.884;4.322;2022-11-20T01:53:11;7.10;99.90
22781;DHT22;11557;50.884;4.322;2022-11-20T01:55:45;7.80;99.90
22781;DHT22;11557;50.884;4.322;2022-11-20T01:58:12;8.40;99.90
22781;DHT22;11557;50.884;4.322;2022-11-20T02:00:39;7.60;99.90
22781;DHT22;11557;50.884;4.322;2022-11-20T02:03:08;8.00;99.90
22781;DHT22;11557;50.884;4.322;2022-11-20T02:06:22;7.60;99.90
22781;DHT22;11557;50.884;4.322;2022-11-20T02:08:48;7.10;99.90
22781;DHT22;11557;50.884;4.322;2022-11-20T02:11:14;7.40;99.90
22781;DHT22;11557;50.884;4.322;2022-11-20T02:13:40;7.20;99.90
22781;DHT22;11557;50.884;4.322;2022-11-20T02:16:21;8.00;99.90
22781;DHT22;11557;50.884;4.322;2022-11-20T02:18:49;7.20;99.90
22781;DHT22;11557;50.884;4.322;2022-11-20T02:24:04;6.90;99.90
22781;DHT22;11557;50.884;4.322;2022-11-20T02:26:35;6.80;99.90
22781;DHT22;11557;50.884;4.322;2022-11-20T02:29:03;8.10;99.90
22781;DHT22;11557;50.884;4.322;2022-11-20T02:31:33;7.50;99.90
22781;DHT22;11557;50.884;4.322;2022-11-20T02:33:59;7.30;99.90
22781;DHT22;11557;50.884;4.322;2022-11-20T02:36:26;6.20;99.90
22781;DHT22;11557;50.884;4.322;2022-11-20T02:38:53;6.90;99.90
22781;DHT22;11557;50.884;4.322;2022-11-20T02:41:19;6.20;99.90
22781;DHT22;11557;50.884;4.322;2022-11-20T02:43:45;6.30;99.90
22781;DHT22;11557;50.884;4.322;2022-11-20T02:46:10;6.90;99.90
22781;DHT22;11557;50.884;4.322;2022-11-20T02:48:36;6.50;99.90
22781;DHT22;11557;50.884;4.322;2022-11-20T02:51:02;6.70;99.90
22781;DHT22;11557;50.884;4.322;2022-11-20T02:53:28;6.60;99.90
22781;DHT22;11557;50.884;4.322;2022-11-20T02:55:53;6.60;99.90
22781;DHT22;11557;50.884;4.322;2022-11-20T02:58:19;7.60;99.90
22781;DHT22;11557;50.884;4.322;2022-11-20T03:00:44;6.50;99.90
22781;DHT22;11557;50.884;4.322;2022-11-20T03:03:10;6.30;99.90
22781;DHT22;11557;50.884;4.322;2022-11-20T03:05:35;6.20;99.90
22781;DHT22;11557;50.884;4.322;2022-11-20T03:08:01;6.20;99.90
22781;DHT22;11557;50.884;4.322;2022-11-20T03:10:27;6.30;99.90
22781;DHT22;11557;50.884;4.322;2022-11-20T03:12:54;6.60;99.90
22781;DHT22;11557;50.884;4.322;2022-11-20T03:15:23;6.70;99.90
22781;DHT22;11557;50.884;4.322;2022-11-20T03:17:52;6.30;99.90
22781;DHT22;11557;50.884;4.322;2022-11-20T03:20:18;7.40;99.90
22781;DHT22;11557;50.884;4.322;2022-11-20T03:22:43;6.50;99.90
22781;DHT22;11557;50.884;4.322;2022-11-20T03:25:09;7.20;99.90
22781;DHT22;11557;50.884;4.322;2022-11-20T03:27:34;7.40;99.90
22781;DHT22;11557;50.884;4.322;2022-11-20T03:30:00;6.60;99.90
22781;DHT22;11557;50.884;4.322;2022-11-20T03:32:26;7.40;99.90
22781;DHT22;11557;50.884;4.322;2022-11-20T03:34:51;7.70;99.90
22781;DHT22;11557;50.884;4.322;2022-11-20T03:37:17;6.80;99.90
22781;DHT22;11557;50.884;4.322;2022-11-20T03:39:43;6.70;99.90
22781;DHT22;11557;50.884;4.322;2022-11-20T03:42:09;7.70;99.90
22781;DHT22;11557;50.884;4.322;2022-11-20T03:44:54;6.70;99.90
22781;DHT22;11557;50.884;4.322;2022-11-20T03:47:20;6.80;99.90
22781;DHT22;11557;50.884;4.322;2022-11-20T03:49:46;6.90;99.90
22781;DHT22;11557;50.884;4.322;2022-11-20T03:52:11;7.80;99.90
22781;DHT22;11557;50.884;4.322;2022-11-20T03:54:37;7.90;99.90
22781;DHT22;11557;50.884;4.322;2022-11-20T03:57:02;8.40;99.90
22781;DHT22;11557;50.884;4.322;2022-11-20T03:59:28;8.30;99.90
22781;DHT22;11557;50.884;4.322;2022-11-20T04:01:53;7.20;99.90
22781;DHT22;11557;50.884;4.322;2022-11-20T04:04:19;7.60;99.90
22781;DHT22;11557;50.884;4.322;2022-11-20T04:06:44;7.70;99.90
22781;DHT22;11557;50.884;4.322;2022-11-20T04:09:10;7.50;99.90
22781;DHT22;11557;50.884;4.322;2022-11-20T04:11:39;8.10;99.90
22781;DHT22;11557;50.884;4.322;2022-11-20T04:14:11;8.90;99.90
22781;DHT22;11557;50.884;4.322;2022-11-20T04:16:37;7.40;99.90
22781;DHT22;11557;50.884;4.322;2022-11-20T04:19:05;7.90;99.90
22781;DHT22;11557;50.884;4.322;2022-11-20T04:21:31;8.50;99.90
22781;DHT22;11557;50.884;4.322;2022-11-20T04:23:58;7.70;99.90
22781;DHT22;11557;50.884;4.322;2022-11-20T04:26:25;7.70;99.90
22781;DHT22;11557;50.884;4.322;2022-11-20T04:28:51;8.60;99.90
22781;DHT22;11557;50.884;4.322;2022-11-20T04:31:20;8.10;99.90
22781;DHT22;11557;50.884;4.322;2022-11-20T04:33:46;8.50;99.90
22781;DHT22;11557;50.884;4.322;2022-11-20T04:36:20;8.20;99.90
22781;DHT22;11557;50.884;4.322;2022-11-20T04:38:46;7.90;99.90
22781;DHT22;11557;50.884;4.322;2022-11-20T04:41:18;7.40;99.90
22781;DHT22;11557;50.884;4.322;2022-11-20T04:43:48;8.70;99.90
22781;DHT22;11557;50.884;4.322;2022-11-20T04:46:15;7.90;99.90
22781;DHT22;11557;50.884;4.322;2022-11-20T04:48:40;7.40;99.90
22781;DHT22;11557;50.884;4.322;2022-11-20T04:51:06;7.70;99.90
22781;DHT22;11557;50.884;4.322;2022-11-20T04:53:32;8.00;99.90
22781;DHT22;11557;50.884;4.322;2022-11-20T04:56:03;7.70;99.90
22781;DHT22;11557;50.884;4.322;2022-11-20T04:58:29;7.60;99.90
22781;DHT22;11557;50.884;4.322;2022-11-20T05:01:24;7.70;99.90
22781;DHT22;11557;50.884;4.322;2022-11-20T05:03:50;7.60;99.90
22781;DHT22;11557;50.884;4.322;2022-11-20T05:06:18;8.20;99.90
22781;DHT22;11557;50.884;4.322;2022-11-20T05:08:44;7.50;99.90
22781;DHT22;11557;50.884;4.322;2022-11-20T05:11:15;8.20;99.90
22781;DHT22;11557;50.884;4.322;2022-11-20T05:13:41;7.50;99.90
22781;DHT22;11557;50.884;4.322;2022-11-20T05:16:15;7.50;99.90
22781;DHT22;11557;50.884;4.322;2022-11-20T05:18:41;7.60;99.90
22781;DHT22;11557;50.884;4.322;2022-11-20T05:21:08;7.70;99.90
22781;DHT22;11557;50.884;4.322;2022-11-20T05:23:34;7.60;99.90
22781;DHT22;11557;50.884;4.322;2022-11-20T05:26:01;8.80;99.90
22781;DHT22;11557;50.884;4.322;2022-11-20T05:28:28;8.00;99.90
22781;DHT22;11557;50.884;4.322;2022-11-20T05:30:54;9.30;99.90
22781;DHT22;11557;50.884;4.322;2022-11-20T05:33:20;7.90;99.90
22781;DHT22;11557;50.884;4.322;2022-11-20T05:35:45;7.70;99.90
22781;DHT22;11557;50.884;4.322;2022-11-20T05:38:11;8.10;99.90
22781;DHT22;11557;50.884;4.322;2022-11-20T05:40:37;8.00;99.90
22781;DHT22;11557;50.884;4.322;2022-11-20T05:43:03;7.80;99.90
22781;DHT22;11557;50.884;4.322;2022-11-20T05:45:28;8.60;99.90
22781;DHT22;11557;50.884;4.322;2022-11-20T05:47:58;8.90;99.90
22781;DHT22;11557;50.884;4.322;2022-11-20T05:50:24;8.90;99.90
22781;DHT22;11557;50.884;4.322;2022-11-20T05:52:49;8.10;99.90
22781;DHT22;11557;50.884;4.322;2022-11-20T05:55:15;8.20;99.90
22781;DHT22;11557;50.884;4.322;2022-11-20T05:57:41;8.10;99.90
22781;DHT22;11557;50.884;4.322;2022-11-20T06:00:07;8.10;99.90
22781;DHT22;11557;50.884;4.322;2022-11-20T06:02:35;7.90;99.90
22781;DHT22;11557;50.884;4.322;2022-11-20T06:05:01;7.80;99.90
22781;DHT22;11557;50.884;4.322;2022-11-20T06:07:26;8.20;99.90
22781;DHT22;11557;50.884;4.322;2022-11-20T06:09:52;7.90;99.90
22781;DHT22;11557;50.884;4.322;2022-11-20T06:12:17;9.00;99.90
22781;DHT22;11557;50.884;4.322;2022-11-20T06:14:43;8.10;99.90
22781;DHT22;11557;50.884;4.322;2022-11-20T06:17:09;8.00;99.90
22781;DHT22;11557;50.884;4.322;2022-11-20T06:19:34;8.50;99.90
22781;DHT22;11557;50.884;4.322;2022-11-20T06:22:00;7.90;99.90
22781;DHT22;11557;50.884;4.322;2022-11-20T06:24:26;8.60;99.90
22781;DHT22;11557;50.884;4.322;2022-11-20T06:26:52;8.70;99.90
22781;DHT22;11557;50.884;4.322;2022-11-20T06:29:17;7.60;99.90
22781;DHT22;11557;50.884;4.322;2022-11-20T06:31:43;8.50;99.90
22781;DHT22;11557;50.884;4.322;2022-11-20T06:34:09;8.30;99.90
22781;DHT22;11557;50.884;4.322;2022-11-20T06:36:34;8.10;99.90
22781;DHT22;11557;50.884;4.322;2022-11-20T06:39:00;7.90;99.90
22781;DHT22;11557;50.884;4.322;2022-11-20T06:41:26;8.10;99.90
22781;DHT22;11557;50.884;4.322;2022-11-20T06:43:54;8.90;99.90
22781;DHT22;11557;50.884;4.322;2022-11-20T06:46:20;8.70;99.90
22781;DHT22;11557;50.884;4.322;2022-11-20T06:48:47;8.10;99.90
22781;DHT22;11557;50.884;4.322;2022-11-20T06:51:13;8.40;99.90
22781;DHT22;11557;50.884;4.322;2022-11-20T06:53:38;8.60;99.90
22781;DHT22;11557;50.884;4.322;2022-11-20T06:56:05;8.40;99.90
22781;DHT22;11557;50.884;4.322;2022-11-20T06:58:31;8.10;99.90
22781;DHT22;11557;50.884;4.322;2022-11-20T07:01:06;8.10;99.90
22781;DHT22;11557;50.884;4.322;2022-11-20T07:03:32;8.00;99.90
22781;DHT22;11557;50.884;4.322;2022-11-20T07:05:58;7.90;99.90
22781;DHT22;11557;50.884;4.322;2022-11-20T07:08:24;7.70;99.90
22781;DHT22;11557;50.884;4.322;2022-11-20T07:10:50;9.40;99.90
22781;DHT22;11557;50.884;4.322;2022-11-20T07:13:16;8.10;99.90
22781;DHT22;11557;50.884;4.322;2022-11-20T07:15:41;8.70;99.90
22781;DHT22;11557;50.884;4.322;2022-11-20T07:18:07;8.50;99.90
22781;DHT22;11557;50.884;4.322;2022-11-20T07:20:32;9.30;99.90
22781;DHT22;11557;50.884;4.322;2022-11-20T07:22:58;8.40;99.90
22781;DHT22;11557;50.884;4.322;2022-11-20T07:25:25;9.30;99.90
22781;DHT22;11557;50.884;4.322;2022-11-20T07:27:51;8.20;99.90
22781;DHT22;11557;50.884;4.322;2022-11-20T07:30:17;8.30;99.90
22781;DHT22;11557;50.884;4.322;2022-11-20T07:32:46;8.10;99.90
22781;DHT22;11557;50.884;4.322;2022-11-20T07:35:12;9.10;99.90
22781;DHT22;11557;50.884;4.322;2022-11-20T07:37:38;8.30;99.90
22781;DHT22;11557;50.884;4.322;2022-11-20T07:40:04;9.50;99.90
22781;DHT22;11557;50.884;4.322;2022-11-20T07:42:30;8.40;99.90
22781;DHT22;11557;50.884;4.322;2022-11-20T07:44:55;8.50;99.90
22781;DHT22;11557;50.884;4.322;2022-11-20T07:47:21;8.60;99.90
22781;DHT22;11557;50.884;4.322;2022-11-20T07:49:47;8.60;99.90
22781;DHT22;11557;50.884;4.322;2022-11-20T07:52:12;8.60;99.90
22781;DHT22;11557;50.884;4.322;2022-11-20T07:54:39;9.60;99.90
22781;DHT22;11557;50.884;4.322;2022-11-20T07:57:04;8.60;99.90
22781;DHT22;11557;50.884;4.322;2022-11-20T07:59:30;9.20;99.90
22781;DHT22;11557;50.884;4.322;2022-11-20T08:01:56;8.70;99.90
22781;DHT22;11557;50.884;4.322;2022-11-20T08:04:22;8.40;99.90
22781;DHT22;11557;50.884;4.322;2022-11-20T08:06:48;8.80;99.90
22781;DHT22;11557;50.884;4.322;2022-11-20T08:09:14;8.30;99.90
22781;DHT22;11557;50.884;4.322;2022-11-20T08:11:41;9.90;99.90
22781;DHT22;11557;50.884;4.322;2022-11-20T08:14:26;8.50;99.90
22781;DHT22;11557;50.884;4.322;2022-11-20T08:16:55;8.60;99.90
22781;DHT22;11557;50.884;4.322;2022-11-20T08:19:20;9.10;99.90
22781;DHT22;11557;50.884;4.322;2022-11-20T08:21:46;8.90;99.90
22781;DHT22;11557;50.884;4.322;2022-11-20T08:24:17;9.30;99.90
22781;DHT22;11557;50.884;4.322;2022-11-20T08:26:43;8.50;99.90
22781;DHT22;11557;50.884;4.322;2022-11-20T08:29:09;8.50;99.90
22781;DHT22;11557;50.884;4.322;2022-11-20T08:31:35;8.40;99.90
22781;DHT22;11557;50.884;4.322;2022-11-20T08:34:00;8.30;99.90
22781;DHT22;11557;50.884;4.322;2022-11-20T08:36:26;8.80;99.90
22781;DHT22;11557;50.884;4.322;2022-11-20T08:38:59;8.60;99.90
22781;DHT22;11557;50.884;4.322;2022-11-20T08:41:25;9.00;99.90
22781;DHT22;11557;50.884;4.322;2022-11-20T08:43:57;9.30;99.90
22781;DHT22;11557;50.884;4.322;2022-11-20T08:46:30;8.50;99.90
22781;DHT22;11557;50.884;4.322;2022-11-20T08:48:56;8.60;99.90
22781;DHT22;11557;50.884;4.322;2022-11-20T08:51:24;9.50;99.90
22781;DHT22;11557;50.884;4.322;2022-11-20T08:53:51;8.70;99.90
22781;DHT22;11557;50.884;4.322;2022-11-20T08:56:17;8.40;99.90
22781;DHT22;11557;50.884;4.322;2022-11-20T08:58:43;8.50;99.90
22781;DHT22;11557;50.884;4.322;2022-11-20T09:01:09;10.00;99.90
22781;DHT22;11557;50.884;4.322;2022-11-20T09:03:35;8.70;99.90
22781;DHT22;11557;50.884;4.322;2022-11-20T09:06:05;9.70;99.90
22781;DHT22;11557;50.884;4.322;2022-11-20T09:08:31;8.70;99.90
22781;DHT22;11557;50.884;4.322;2022-11-20T09:10:59;8.80;99.90
22781;DHT22;11557;50.884;4.322;2022-11-20T09:13:26;9.50;99.90
22781;DHT22;11557;50.884;4.322;2022-11-20T09:15:57;8.80;99.90
22781;DHT22;11557;50.884;4.322;2022-11-20T09:18:24;8.70;99.90
22781;DHT22;11557;50.884;4.322;2022-11-20T09:20:50;9.50;99.90
22781;DHT22;11557;50.884;4.322;2022-11-20T09:23:16;8.90;99.90
22781;DHT22;11557;50.884;4.322;2022-11-20T09:25:42;9.10;99.90
22781;DHT22;11557;50.884;4.322;2022-11-20T09:28:08;9.00;99.90
22781;DHT22;11557;50.884;4.322;2022-11-20T09:30:34;9.00;99.90
22781;DHT22;11557;50.884;4.322;2022-11-20T09:32:59;9.20;99.90
22781;DHT22;11557;50.884;4.322;2022-11-20T09:35:25;9.30;99.90
22781;DHT22;11557;50.884;4.322;2022-11-20T09:37:51;10.20;99.90
22781;DHT22;11557;50.884;4.322;2022-11-20T09:40:25;9.40;99.90
22781;DHT22;11557;50.884;4.322;2022-11-20T09:43:13;9.50;99.90
22781;DHT22;11557;50.884;4.322;2022-11-20T09:45:56;9.50;99.90
22781;DHT22;11557;50.884;4.322;2022-11-20T09:51:46;9.60;99.90
22781;DHT22;11557;50.884;4.322;2022-11-20T09:54:18;9.70;99.90
22781;DHT22;11557;50.884;4.322;2022-11-20T09:56:50;9.80;99.90
22781;DHT22;11557;50.884;4.322;2022-11-20T10:01:56;9.80;99.90
22781;DHT22;11557;50.884;4.322;2022-11-20T10:04:24;9.80;99.90
22781;DHT22;11557;50.884;4.322;2022-11-20T10:07:12;10.40;99.90
22781;DHT22;11557;50.884;4.322;2022-11-20T10:10:03;9.90;99.90
22781;DHT22;11557;50.884;4.322;2022-11-20T10:15:45;9.90;99.90
22781;DHT22;11557;50.884;4.322;2022-11-20T10:18:39;10.00;99.90
22781;DHT22;11557;50.884;4.322;2022-11-20T10:24:21;10.40;99.90
22781;DHT22;11557;50.884;4.322;2022-11-20T10:26:59;10.30;99.90
22781;DHT22;11557;50.884;4.322;2022-11-20T10:29:32;10.90;99.90
22781;DHT22;11557;50.884;4.322;2022-11-20T10:32:20;10.40;99.90
22781;DHT22;11557;50.884;4.322;2022-11-20T10:37:53;10.80;99.90
22781;DHT22;11557;50.884;4.322;2022-11-20T10:40:43;10.80;99.90
22781;DHT22;11557;50.884;4.322;2022-11-20T10:43:19;10.80;99.90
22781;DHT22;11557;50.884;4.322;2022-11-20T10:46:05;10.80;99.90
22781;DHT22;11557;50.884;4.322;2022-11-20T10:48:43;10.70;99.90
22781;DHT22;11557;50.884;4.322;2022-11-20T10:51:15;10.70;99.90
22781;DHT22;11557;50.884;4.322;2022-11-20T10:56:50;10.70;99.90
22781;DHT22;11557;50.884;4.322;2022-11-20T10:59:37;10.70;99.90
22781;DHT22;11557;50.884;4.322;2022-11-20T11:02:21;10.70;99.90
22781;DHT22;11557;50.884;4.322;2022-11-20T11:04:49;10.70;99.90
22781;DHT22;11557;50.884;4.322;2022-11-20T11:07:25;10.80;99.90
22781;DHT22;11557;50.884;4.322;2022-11-20T11:09:55;10.60;99.90
22781;DHT22;11557;50.884;4.322;2022-11-20T11:12:26;10.70;99.90
22781;DHT22;11557;50.884;4.322;2022-11-20T11:14:57;11.30;99.90
22781;DHT22;11557;50.884;4.322;2022-11-20T11:17:31;10.50;99.90
22781;DHT22;11557;50.884;4.322;2022-11-20T11:20:17;10.30;99.90
22781;DHT22;11557;50.884;4.322;2022-11-20T11:22:49;10.20;99.90
22781;DHT22;11557;50.884;4.322;2022-11-20T11:27:55;10.00;99.90
22781;DHT22;11557;50.884;4.322;2022-11-20T11:30:23;10.10;99.90
22781;DHT22;11557;50.884;4.322;2022-11-20T11:32:49;10.00;99.90
22781;DHT22;11557;50.884;4.322;2022-11-20T11:35:27;10.20;99.90
22781;DHT22;11557;50.884;4.322;2022-11-20T11:38:01;10.20;99.90
22781;DHT22;11557;50.884;4.322;2022-11-20T11:40:27;10.70;99.90
22781;DHT22;11557;50.884;4.322;2022-11-20T11:43:01;10.20;99.90
22781;DHT22;11557;50.884;4.322;2022-11-20T11:45:27;10.10;99.90
22781;DHT22;11557;50.884;4.322;2022-11-20T11:47:56;10.00;99.90
22781;DHT22;11557;50.884;4.322;2022-11-20T11:50:25;10.00;99.90
22781;DHT22;11557;50.884;4.322;2022-11-20T11:53:14;10.10;99.90
22781;DHT22;11557;50.884;4.322;2022-11-20T11:58:45;10.20;99.90
22781;DHT22;11557;50.884;4.322;2022-11-20T12:06:47;10.10;99.90
22781;DHT22;11557;50.884;4.322;2022-11-20T12:09:16;10.10;99.90
22781;DHT22;11557;50.884;4.322;2022-11-20T12:11:58;10.10;99.90
22781;DHT22;11557;50.884;4.322;2022-11-20T12:14:38;10.00;99.90
22781;DHT22;11557;50.884;4.322;2022-11-20T12:17:05;9.90;99.90
22781;DHT22;11557;50.884;4.322;2022-11-20T12:19:35;10.00;99.90
22781;DHT22;11557;50.884;4.322;2022-11-20T12:25:07;9.70;99.90
22781;DHT22;11557;50.884;4.322;2022-11-20T12:53:25;9.70;99.90
22781;DHT22;11557;50.884;4.322;2022-11-20T12:59:21;9.80;99.90
22781;DHT22;11557;50.884;4.322;2022-11-20T13:01:56;9.80;99.90
22781;DHT22;11557;50.884;4.322;2022-11-20T13:07:12;10.60;99.90
22781;DHT22;11557;50.884;4.322;2022-11-20T13:09:44;9.90;99.90
22781;DHT22;11557;50.884;4.322;2022-11-20T13:12:20;10.00;99.90
22781;DHT22;11557;50.884;4.322;2022-11-20T13:15:14;10.80;99.90
22781;DHT22;11557;50.884;4.322;2022-11-20T13:17:52;9.70;99.90
22781;DHT22;11557;50.884;4.322;2022-11-20T13:20:20;9.60;99.90
22781;DHT22;11557;50.884;4.322;2022-11-20T13:22:47;10.20;99.90
22781;DHT22;11557;50.884;4.322;2022-11-20T13:27:55;9.60;99.90
22781;DHT22;11557;50.884;4.322;2022-11-20T13:30:30;9.50;99.90
22781;DHT22;11557;50.884;4.322;2022-11-20T13:33:09;9.40;99.90
22781;DHT22;11557;50.884;4.322;2022-11-20T13:35:37;9.50;99.90
22781;DHT22;11557;50.884;4.322;2022-11-20T13:38:10;9.70;99.90
22781;DHT22;11557;50.884;4.322;2022-11-20T13:40:39;9.50;99.90
22781;DHT22;11557;50.884;4.322;2022-11-20T13:43:21;9.70;99.90
22781;DHT22;11557;50.884;4.322;2022-11-20T13:46:03;9.40;99.90
22781;DHT22;11557;50.884;4.322;2022-11-20T13:48:33;9.50;99.90
22781;DHT22;11557;50.884;4.322;2022-11-20T14:00:16;9.50;99.90
22781;DHT22;11557;50.884;4.322;2022-11-20T14:02:47;9.60;99.90
22781;DHT22;11557;50.884;4.322;2022-11-20T14:05:21;10.30;99.90
22781;DHT22;11557;50.884;4.322;2022-11-20T14:07:52;10.00;99.90
22781;DHT22;11557;50.884;4.322;2022-11-20T14:10:30;10.70;99.90
22781;DHT22;11557;50.884;4.322;2022-11-20T14:12:56;9.40;99.90
22781;DHT22;11557;50.884;4.322;2022-11-20T14:15:30;9.60;99.90
22781;DHT22;11557;50.884;4.322;2022-11-20T14:17:57;9.50;99.90
22781;DHT22;11557;50.884;4.322;2022-11-20T14:20:28;9.50;99.90
22781;DHT22;11557;50.884;4.322;2022-11-20T14:22:55;10.90;99.90
22781;DHT22;11557;50.884;4.322;2022-11-20T14:25:25;10.00;99.90
22781;DHT22;11557;50.884;4.322;2022-11-20T14:27:58;9.30;99.90
22781;DHT22;11557;50.884;4.322;2022-11-20T14:30:28;9.40;99.90
22781;DHT22;11557;50.884;4.322;2022-11-20T14:33:02;9.60;99.90
22781;DHT22;11557;50.884;4.322;2022-11-20T14:35:29;9.70;99.90
22781;DHT22;11557;50.884;4.322;2022-11-20T14:37:57;9.30;99.90
22781;DHT22;11557;50.884;4.322;2022-11-20T14:40:31;9.80;99.90
22781;DHT22;11557;50.884;4.322;2022-11-20T14:42:58;9.30;99.90
22781;DHT22;11557;50.884;4.322;2022-11-20T14:45:25;9.70;99.90
22781;DHT22;11557;50.884;4.322;2022-11-20T14:47:56;9.40;99.90
22781;DHT22;11557;50.884;4.322;2022-11-20T14:50:27;10.20;99.90
22781;DHT22;11557;50.884;4.322;2022-11-20T14:52:57;9.40;99.90
22781;DHT22;11557;50.884;4.322;2022-11-20T14:55:34;10.60;99.90
22781;DHT22;11557;50.884;4.322;2022-11-20T14:58:21;9.50;99.90
22781;DHT22;11557;50.884;4.322;2022-11-20T15:01:02;9.30;99.90
22781;DHT22;11557;50.884;4.322;2022-11-20T15:03:35;9.20;99.90
22781;DHT22;11557;50.884;4.322;2022-11-20T15:06:02;9.90;99.90
22781;DHT22;11557;50.884;4.322;2022-11-20T15:08:28;9.40;99.90
22781;DHT22;11557;50.884;4.322;2022-11-20T15:10:54;9.50;99.90
22781;DHT22;11557;50.884;4.322;2022-11-20T15:13:34;10.40;99.90
22781;DHT22;11557;50.884;4.322;2022-11-20T15:16:02;9.30;99.90
22781;DHT22;11557;50.884;4.322;2022-11-20T15:18:47;9.30;99.90
22781;DHT22;11557;50.884;4.322;2022-11-20T15:21:17;9.50;99.90
22781;DHT22;11557;50.884;4.322;2022-11-20T15:23:43;9.40;99.90
22781;DHT22;11557;50.884;4.322;2022-11-20T15:26:10;9.40;99.90
22781;DHT22;11557;50.884;4.322;2022-11-20T15:28:41;9.30;99.90
22781;DHT22;11557;50.884;4.322;2022-11-20T15:31:12;9.40;99.90
22781;DHT22;11557;50.884;4.322;2022-11-20T15:33:38;10.40;99.90
22781;DHT22;11557;50.884;4.322;2022-11-20T15:36:04;10.90;99.90
22781;DHT22;11557;50.884;4.322;2022-11-20T15:38:29;9.50;99.90
22781;DHT22;11557;50.884;4.322;2022-11-20T15:40:55;9.50;99.90
22781;DHT22;11557;50.884;4.322;2022-11-20T15:43:21;9.60;99.90
22781;DHT22;11557;50.884;4.322;2022-11-20T15:45:55;9.90;99.90
22781;DHT22;11557;50.884;4.322;2022-11-20T15:48:24;10.00;99.90
22781;DHT22;11557;50.884;4.322;2022-11-20T15:53:48;9.40;99.90
22781;DHT22;11557;50.884;4.322;2022-11-20T15:56:14;10.10;99.90
22781;DHT22;11557;50.884;4.322;2022-11-20T15:58:40;9.50;99.90
22781;DHT22;11557;50.884;4.322;2022-11-20T16:01:10;10.50;99.90
22781;DHT22;11557;50.884;4.322;2022-11-20T16:03:37;9.30;99.90
22781;DHT22;11557;50.884;4.322;2022-11-20T16:06:02;9.40;99.90
22781;DHT22;11557;50.884;4.322;2022-11-20T16:08:28;9.40;99.90
22781;DHT22;11557;50.884;4.322;2022-11-20T16:10:54;10.30;99.90
22781;DHT22;11557;50.884;4.322;2022-11-20T16:13:19;9.40;99.90
22781;DHT22;11557;50.884;4.322;2022-11-20T16:16:20;9.40;99.90
22781;DHT22;11557;50.884;4.322;2022-11-20T16:18:46;9.50;99.90
22781;DHT22;11557;50.884;4.322;2022-11-20T16:21:12;10.10;99.90
22781;DHT22;11557;50.884;4.322;2022-11-20T16:23:41;9.40;99.90
22781;DHT22;11557;50.884;4.322;2022-11-20T16:26:12;10.50;99.90
22781;DHT22;11557;50.884;4.322;2022-11-20T16:28:39;9.40;99.90
22781;DHT22;11557;50.884;4.322;2022-11-20T16:31:16;9.70;99.90
22781;DHT22;11557;50.884;4.322;2022-11-20T16:33:42;9.40;99.90
22781;DHT22;11557;50.884;4.322;2022-11-20T16:38:34;9.30;99.90
22781;DHT22;11557;50.884;4.322;2022-11-20T16:41:00;9.20;99.90
22781;DHT22;11557;50.884;4.322;2022-11-20T16:43:26;9.30;99.90
22781;DHT22;11557;50.884;4.322;2022-11-20T16:45:52;10.90;99.90
22781;DHT22;11557;50.884;4.322;2022-11-20T16:48:18;9.60;99.90
22781;DHT22;11557;50.884;4.322;2022-11-20T16:50:49;9.40;99.90
22781;DHT22;11557;50.884;4.322;2022-11-20T16:53:16;9.30;99.90
22781;DHT22;11557;50.884;4.322;2022-11-20T16:55:42;10.30;99.90
22781;DHT22;11557;50.884;4.322;2022-11-20T16:58:08;9.40;99.90
22781;DHT22;11557;50.884;4.322;2022-11-20T17:00:36;9.20;99.90
22781;DHT22;11557;50.884;4.322;2022-11-20T17:03:03;9.80;99.90
22781;DHT22;11557;50.884;4.322;2022-11-20T17:05:30;9.60;99.90
22781;DHT22;11557;50.884;4.322;2022-11-20T17:07:56;9.00;99.90
22781;DHT22;11557;50.884;4.322;2022-11-20T17:10:21;8.80;99.90
22781;DHT22;11557;50.884;4.322;2022-11-20T17:12:47;9.40;99.90
22781;DHT22;11557;50.884;4.322;2022-11-20T17:15:13;8.70;99.90
22781;DHT22;11557;50.884;4.322;2022-11-20T17:17:38;8.90;99.90
22781;DHT22;11557;50.884;4.322;2022-11-20T17:20:04;8.80;99.90
22781;DHT22;11557;50.884;4.322;2022-11-20T17:22:31;8.80;99.90